Time;durP1;ratioP1;P1;durP2;ratioP2;P2;SDS_P1;SDS_P2;PMS_P1;PMS_P2;Temp;Humidity;BMP_temperature;BMP_pressure;BME280_temperature;BME280_humidity;BME280_pressure;Samples;Min_cycle;Max_cycle;Signal;HPM_P1;HPM_P2
2022/12/08 00:01:07;;;;;;;4.90;1.65;;;2.30;99.90;;;;;;4964099;28;20058;-62
2022/12/08 00:03:34;;;;;;;4.43;1.70;;;2.10;99.90;;;;;;4962695;28;20055;-60
2022/12/08 00:11:30;;;;;;;3.33;1.45;;;2.40;99.90;;;;;;4907623;29;20052;-60
2022/12/08 00:13:56;;;;;;;7.40;1.80;;;2.10;99.90;;;;;;4905661;29;20468;-61
2022/12/08 00:16:21;;;;;;;10.32;1.88;;;2.50;99.90;;;;;;4903964;29;20523;-61
2022/12/08 00:18:47;;;;;;;5.25;1.60;;;2.20;99.90;;;;;;4905994;29;20467;-61
2022/12/08 00:21:14;;;;;;;6.15;1.58;;;2.60;99.90;;;;;;4920446;29;20527;-61
2022/12/08 00:23:39;;;;;;;5.50;1.45;;;2.30;99.90;;;;;;4906797;29;20111;-61
2022/12/08 00:26:05;;;;;;;5.47;1.70;;;2.50;99.90;;;;;;4905744;29;20040;-61
2022/12/08 00:28:32;;;;;;;5.82;1.90;;;2.50;99.90;;;;;;4906087;29;20491;-62
2022/12/08 00:30:59;;;;;;;7.78;2.13;;;2.40;99.90;;;;;;4906835;29;20055;-61
2022/12/08 00:33:26;;;;;;;7.53;1.98;;;2.10;99.90;;;;;;4905917;29;20044;-62
2022/12/08 00:35:52;;;;;;;4.85;1.55;;;2.10;99.90;;;;;;4906828;29;20036;-62
2022/12/08 00:38:18;;;;;;;5.93;1.60;;;2.00;99.90;;;;;;4905408;29;20139;-62
2022/12/08 00:40:45;;;;;;;6.47;1.52;;;2.20;99.90;;;;;;4907207;29;20046;-61
2022/12/08 00:43:11;;;;;;;7.03;1.58;;;2.00;99.90;;;;;;4905258;29;20047;-62
2022/12/08 00:45:36;;;;;;;4.60;1.60;;;2.90;99.90;;;;;;4906634;29;20044;-62
2022/12/08 00:48:02;;;;;;;6.43;1.02;;;2.50;99.90;;;;;;4906645;29;20044;-62
2022/12/08 00:50:28;;;;;;;5.68;1.65;;;2.00;99.90;;;;;;4906730;29;20043;-61
2022/12/08 00:52:53;;;;;;;4.43;1.00;;;3.00;99.90;;;;;;4905556;29;20044;-62
2022/12/08 00:55:19;;;;;;;5.00;1.05;;;2.50;99.90;;;;;;4906370;29;20131;-61
2022/12/08 00:57:45;;;;;;;2.85;1.17;;;2.90;99.90;;;;;;4906844;29;20111;-61
2022/12/08 01:00:11;;;;;;;4.40;1.15;;;2.40;99.90;;;;;;4903998;29;20044;-62
2022/12/08 01:02:37;;;;;;;3.83;1.17;;;2.40;99.90;;;;;;4905869;29;20044;-60
2022/12/08 01:05:03;;;;;;;6.25;1.02;;;2.50;99.90;;;;;;4912473;29;20124;-61
2022/12/08 01:07:28;;;;;;;4.05;1.08;;;2.10;99.90;;;;;;4910003;29;20089;-60
2022/12/08 01:09:54;;;;;;;6.35;1.30;;;2.30;99.90;;;;;;4920833;29;20052;-61
2022/12/08 01:12:20;;;;;;;3.90;1.13;;;2.40;99.90;;;;;;4944277;28;20051;-60
2022/12/08 01:14:45;;;;;;;6.22;1.70;;;2.50;99.90;;;;;;4943950;29;20075;-62
2022/12/08 01:17:11;;;;;;;3.65;1.33;;;2.10;99.90;;;;;;4944118;29;20122;-60
2022/12/08 01:19:37;;;;;;;6.95;1.60;;;2.40;99.90;;;;;;4942909;29;20126;-61
2022/12/08 01:22:02;;;;;;;4.40;1.60;;;2.70;99.90;;;;;;4944382;29;20106;-61
2022/12/08 01:24:28;;;;;;;7.18;1.95;;;2.20;99.90;;;;;;4944192;29;20047;-62
2022/12/08 01:26:54;;;;;;;10.68;5.18;;;3.00;99.90;;;;;;4943921;29;20050;-61
2022/12/08 01:29:19;;;;;;;12.30;8.32;;;3.40;99.90;;;;;;4942744;29;20245;-62
2022/12/08 01:31:45;;;;;;;11.88;8.38;;;2.10;99.90;;;;;;4944330;29;20272;-60
2022/12/08 01:34:11;;;;;;;11.60;5.90;;;2.00;99.90;;;;;;4943262;29;20791;-62
2022/12/08 01:36:37;;;;;;;12.27;4.78;;;2.10;99.90;;;;;;4943327;28;20039;-62
2022/12/08 01:39:06;;;;;;;9.73;5.93;;;2.70;99.90;;;;;;4942962;28;20052;-62
2022/12/08 01:41:34;;;;;;;11.35;4.90;;;2.90;99.90;;;;;;4944381;28;20085;-62
2022/12/08 01:44:09;;;;;;;9.07;4.85;;;2.60;99.90;;;;;;4943223;28;20047;-61
2022/12/08 01:46:37;;;;;;;6.47;3.10;;;2.00;99.90;;;;;;4943447;28;20079;-61
2022/12/08 01:49:14;;;;;;;7.75;1.70;;;2.10;99.90;;;;;;4943990;28;20039;-61
2022/12/08 01:52:01;;;;;;;4.03;1.35;;;2.30;99.90;;;;;;4942994;28;20051;-61
2022/12/08 01:54:32;;;;;;;6.43;1.40;;;2.20;99.90;;;;;;4943162;29;20487;-60
2022/12/08 01:57:04;;;;;;;4.15;1.20;;;2.10;99.90;;;;;;4942389;28;20502;-61
2022/12/08 01:59:33;;;;;;;6.45;1.30;;;2.80;99.90;;;;;;4942113;28;20082;-62
2022/12/08 02:01:59;;;;;;;4.03;1.35;;;2.30;99.90;;;;;;4942861;28;20135;-61
2022/12/08 02:04:25;;;;;;;3.92;1.10;;;2.50;99.90;;;;;;4944880;28;20186;-61
2022/12/08 02:06:51;;;;;;;2.55;1.05;;;2.70;99.90;;;;;;4948875;28;20110;-61
2022/12/08 02:09:18;;;;;;;4.05;1.00;;;2.90;99.90;;;;;;4942802;28;20130;-61
2022/12/08 02:11:44;;;;;;;6.50;1.10;;;2.00;99.90;;;;;;4942709;28;20087;-62
2022/12/08 02:14:11;;;;;;;5.03;0.98;;;2.00;99.90;;;;;;4941797;28;20381;-61
2022/12/08 02:16:59;;;;;;;3.45;1.00;;;2.30;99.90;;;;;;4956988;28;20170;-60
2022/12/08 02:19:27;;;;;;;3.38;0.80;;;2.30;99.90;;;;;;4966330;28;20702;-61
2022/12/08 02:22:02;;;;;;;3.55;0.70;;;2.10;99.90;;;;;;4966061;28;20053;-61
2022/12/08 02:24:37;;;;;;;2.40;0.85;;;2.30;99.90;;;;;;4966412;28;20130;-61
2022/12/08 02:27:40;;;;;;;3.47;1.05;;;2.10;99.90;;;;;;4966485;28;20059;-62
2022/12/08 02:30:06;;;;;;;5.70;0.80;;;2.10;99.90;;;;;;4965020;28;20078;-62
2022/12/08 02:32:54;;;;;;;4.00;0.88;;;2.40;99.90;;;;;;4964297;28;20066;-62
2022/12/08 02:35:33;;;;;;;3.53;1.00;;;2.10;99.90;;;;;;4966873;28;20042;-61
2022/12/08 02:38:28;;;;;;;2.22;0.90;;;2.10;99.90;;;;;;4965139;28;20050;-62
2022/12/08 02:41:17;;;;;;;2.10;0.57;;;2.30;99.90;;;;;;4966120;28;20042;-61
2022/12/08 02:43:52;;;;;;;3.72;0.82;;;2.30;99.90;;;;;;4965232;28;20054;-61
2022/12/08 02:46:27;;;;;;;2.13;0.80;;;2.40;99.90;;;;;;4966025;28;20047;-62
2022/12/08 02:48:54;;;;;;;;;;;2.20;99.90;;;;;;4966658;28;20125;-62
2022/12/08 02:51:20;;;;;;;1.85;0.70;;;2.50;99.90;;;;;;4966427;28;19945;-60
2022/12/08 02:53:46;;;;;;;2.80;0.80;;;2.90;99.90;;;;;;4965696;28;20043;-60
2022/12/08 02:56:30;;;;;;;3.50;0.90;;;2.00;99.90;;;;;;4965190;28;20062;-60
2022/12/08 02:59:11;;;;;;;3.83;0.68;;;2.70;99.90;;;;;;4965282;28;20039;-62
2022/12/08 03:02:00;;;;;;;2.05;0.55;;;1.90;99.90;;;;;;4965198;28;20046;-61
2022/12/08 03:04:57;;;;;;;3.38;0.73;;;1.90;99.90;;;;;;4959600;28;20051;-61
2022/12/08 03:07:46;;;;;;;2.42;0.80;;;1.80;99.90;;;;;;4961205;28;20056;-61
2022/12/08 03:10:21;;;;;;;3.42;0.82;;;1.80;99.90;;;;;;4964208;28;20109;-61
2022/12/08 03:13:07;;;;;;;1.40;0.70;;;1.80;99.90;;;;;;4964624;28;20133;-61
2022/12/08 03:15:36;;;;;;;4.25;1.10;;;2.00;99.90;;;;;;4964530;28;20053;-60
2022/12/08 03:18:04;;;;;;;3.05;1.05;;;2.30;99.90;;;;;;4964967;28;20043;-62
2022/12/08 03:20:31;;;;;;;2.45;1.02;;;1.70;99.90;;;;;;4965193;28;20079;-62
2022/12/08 03:22:59;;;;;;;2.67;1.10;;;2.00;99.90;;;;;;4964517;28;20047;-62
2022/12/08 03:25:28;;;;;;;4.72;0.90;;;2.10;99.90;;;;;;4965146;28;20090;-63
2022/12/08 03:27:54;;;;;;;5.03;1.10;;;2.50;99.90;;;;;;4965133;28;20445;-62
2022/12/08 03:30:19;;;;;;;4.00;1.17;;;2.30;99.90;;;;;;4965228;28;20045;-62
2022/12/08 03:33:03;;;;;;;3.90;1.30;;;1.70;99.90;;;;;;4965471;28;20103;-61
2022/12/08 03:35:32;;;;;;;3.28;1.30;;;1.90;99.90;;;;;;4965410;28;20047;-61
2022/12/08 03:38:06;;;;;;;3.00;1.10;;;1.70;99.90;;;;;;4963461;28;20049;-61
2022/12/08 03:40:33;;;;;;;3.72;1.40;;;1.90;99.90;;;;;;4964770;28;20494;-61
2022/12/08 03:42:59;;;;;;;4.95;1.20;;;2.10;99.90;;;;;;4963247;28;20054;-60
2022/12/08 03:45:25;;;;;;;3.70;1.08;;;2.00;99.90;;;;;;4964205;28;20085;-61
2022/12/08 03:47:50;;;;;;;2.63;0.80;;;1.80;99.90;;;;;;4965036;28;20035;-60
2022/12/08 03:50:16;;;;;;;2.35;0.90;;;1.80;99.90;;;;;;4964672;28;20413;-61
2022/12/08 03:52:42;;;;;;;3.92;1.15;;;2.70;99.90;;;;;;4963909;28;20047;-60
2022/12/08 03:55:08;;;;;;;3.25;1.10;;;2.50;99.90;;;;;;4964195;28;20082;-61
2022/12/08 03:57:33;;;;;;;2.67;0.95;;;2.00;99.90;;;;;;4964384;28;20074;-62
2022/12/08 03:59:59;;;;;;;2.45;0.93;;;2.10;99.90;;;;;;4964888;28;20542;-63
2022/12/08 04:02:25;;;;;;;1.73;0.80;;;1.80;99.90;;;;;;4964935;28;20510;-62
2022/12/08 04:04:50;;;;;;;2.50;0.80;;;1.60;99.90;;;;;;4957513;28;20441;-62
2022/12/08 04:07:16;;;;;;;2.38;0.80;;;2.40;99.90;;;;;;4950742;28;20136;-63
2022/12/08 04:09:43;;;;;;;2.25;0.70;;;1.90;99.90;;;;;;4945390;29;20102;-63
2022/12/08 04:12:09;;;;;;;2.83;0.90;;;1.40;99.90;;;;;;4944915;28;20052;-63
2022/12/08 04:14:35;;;;;;;2.83;0.80;;;2.80;99.90;;;;;;4943952;28;20054;-63
2022/12/08 04:17:00;;;;;;;3.50;0.80;;;1.60;99.90;;;;;;4943444;29;20047;-63
2022/12/08 04:19:26;;;;;;;1.58;0.80;;;1.30;99.90;;;;;;4945833;29;20374;-62
2022/12/08 04:21:52;;;;;;;2.20;0.80;;;1.30;99.90;;;;;;4944582;29;20097;-63
2022/12/08 04:24:18;;;;;;;2.58;0.70;;;1.30;99.90;;;;;;4944602;28;20043;-62
2022/12/08 04:26:44;;;;;;;2.30;0.80;;;1.30;99.90;;;;;;4944830;28;20043;-62
2022/12/08 04:29:10;;;;;;;1.88;0.65;;;1.50;99.90;;;;;;4943736;28;20047;-63
2022/12/08 04:31:36;;;;;;;3.60;0.98;;;1.60;99.90;;;;;;4943513;28;20054;-62
2022/12/08 04:34:02;;;;;;;2.38;0.70;;;1.60;99.90;;;;;;4944755;28;20050;-63
2022/12/08 04:36:28;;;;;;;3.22;0.73;;;1.70;99.90;;;;;;4945137;29;20496;-62
2022/12/08 04:38:53;;;;;;;2.67;0.70;;;1.50;99.90;;;;;;4944134;28;20054;-62
2022/12/08 04:41:19;;;;;;;2.33;0.90;;;1.40;99.90;;;;;;4944132;29;20521;-62
2022/12/08 04:43:44;;;;;;;3.78;0.90;;;2.30;99.90;;;;;;4943885;29;20455;-62
2022/12/08 04:46:10;;;;;;;2.55;0.80;;;1.70;99.90;;;;;;4944233;29;20082;-62
2022/12/08 04:48:37;;;;;;;1.75;0.50;;;3.00;99.90;;;;;;4944253;29;20035;-62
2022/12/08 04:51:03;;;;;;;3.05;0.70;;;1.70;99.90;;;;;;4943930;28;20051;-62
2022/12/08 04:53:29;;;;;;;2.65;0.70;;;1.90;99.90;;;;;;4944992;28;20134;-62
2022/12/08 04:55:55;;;;;;;2.03;0.60;;;2.30;99.90;;;;;;4944826;29;20043;-62
2022/12/08 04:58:20;;;;;;;2.78;0.60;;;1.70;99.90;;;;;;4942091;29;20054;-63
2022/12/08 05:00:47;;;;;;;3.10;0.82;;;2.60;99.90;;;;;;4944057;28;20051;-61
2022/12/08 05:03:13;;;;;;;2.70;0.63;;;1.70;99.90;;;;;;4944010;29;20228;-62
2022/12/08 05:05:40;;;;;;;1.98;0.63;;;1.60;99.90;;;;;;4955028;28;20125;-62
2022/12/08 05:08:07;;;;;;;2.13;0.60;;;1.80;99.90;;;;;;4943652;28;20053;-61
2022/12/08 05:10:32;;;;;;;3.15;0.70;;;1.90;99.90;;;;;;4944404;28;20103;-62
2022/12/08 05:12:59;;;;;;;2.55;0.65;;;2.10;99.90;;;;;;4944216;28;20055;-61
2022/12/08 05:15:25;;;;;;;3.67;0.50;;;2.20;99.90;;;;;;4944277;28;21002;-62
2022/12/08 05:17:50;;;;;;;3.15;0.60;;;2.00;99.90;;;;;;4943419;29;20039;-61
2022/12/08 05:20:16;;;;;;;5.03;0.70;;;2.60;99.90;;;;;;4944314;29;20609;-62
2022/12/08 05:22:42;;;;;;;4.18;0.60;;;1.80;99.90;;;;;;4944134;29;20375;-62
2022/12/08 05:25:08;;;;;;;1.25;0.60;;;2.00;99.90;;;;;;4943994;29;20101;-61
2022/12/08 05:27:34;;;;;;;3.85;0.77;;;2.40;99.90;;;;;;4957702;28;20505;-61
2022/12/08 05:30:00;;;;;;;2.85;0.70;;;1.90;99.90;;;;;;4944775;28;20055;-61
2022/12/08 05:32:26;;;;;;;4.07;1.00;;;3.30;99.90;;;;;;4944178;29;20530;-61
2022/12/08 05:34:51;;;;;;;5.10;1.10;;;2.40;99.90;;;;;;4943690;28;20247;-61
2022/12/08 05:37:17;;;;;;;4.13;0.90;;;2.40;99.90;;;;;;4943979;29;20043;-61
2022/12/08 05:39:43;;;;;;;5.28;1.13;;;2.30;99.90;;;;;;4958635;28;20085;-61
2022/12/08 05:42:08;;;;;;;4.05;0.98;;;1.90;99.90;;;;;;4943174;29;20121;-61
2022/12/08 05:44:34;;;;;;;6.43;1.00;;;2.10;99.90;;;;;;4942519;29;20482;-61
2022/12/08 05:47:00;;;;;;;2.33;0.90;;;2.40;99.90;;;;;;4944051;29;20466;-61
2022/12/08 05:49:25;;;;;;;3.35;0.95;;;1.60;99.90;;;;;;4945133;28;20039;-62
2022/12/08 05:51:51;;;;;;;2.90;0.80;;;2.30;99.90;;;;;;4948114;29;20048;-62
2022/12/08 05:54:17;;;;;;;3.83;1.00;;;1.40;99.90;;;;;;4947179;29;20190;-62
2022/12/08 05:56:42;;;;;;;2.58;0.80;;;1.40;99.90;;;;;;4947666;29;20035;-62
2022/12/08 05:59:09;;;;;;;2.30;0.95;;;1.80;99.90;;;;;;4946868;28;20043;-61
2022/12/08 06:01:35;;;;;;;3.40;1.23;;;1.50;99.90;;;;;;4947347;29;20122;-61
2022/12/08 06:04:02;;;;;;;6.97;1.90;;;1.80;99.90;;;;;;4949370;28;20047;-61
2022/12/08 06:06:29;;;;;;;6.93;1.80;;;1.50;99.90;;;;;;4955950;28;20086;-61
2022/12/08 06:08:55;;;;;;;4.97;1.70;;;1.50;99.90;;;;;;4947536;28;20704;-62
2022/12/08 06:11:23;;;;;;;3.58;1.17;;;2.20;99.90;;;;;;4947210;28;20051;-61
2022/12/08 06:13:49;;;;;;;2.60;1.00;;;1.50;99.90;;;;;;4946938;28;20247;-60
2022/12/08 06:16:15;;;;;;;3.92;1.00;;;1.80;99.90;;;;;;4947841;29;20047;-61
2022/12/08 06:18:41;;;;;;;2.28;0.90;;;1.90;99.90;;;;;;4947569;28;20039;-62
2022/12/08 06:21:09;;;;;;;3.40;0.85;;;1.30;99.90;;;;;;4946690;29;20055;-61
2022/12/08 06:23:35;;;;;;;2.70;0.90;;;2.10;99.90;;;;;;4946829;28;20055;-63
2022/12/08 06:26:07;;;;;;;1.92;0.80;;;2.00;99.90;;;;;;4947344;28;20047;-62
2022/12/08 06:28:33;;;;;;;2.60;0.80;;;1.40;99.90;;;;;;4945545;28;20050;-61
2022/12/08 06:31:05;;;;;;;2.95;0.82;;;2.70;99.90;;;;;;4946960;28;20142;-61
2022/12/08 06:33:30;;;;;;;1.88;0.80;;;1.30;99.90;;;;;;4947370;28;20047;-61
2022/12/08 06:35:58;;;;;;;3.15;1.02;;;1.60;99.90;;;;;;4946697;29;20848;-61
2022/12/08 06:38:23;;;;;;;5.60;1.50;;;2.60;99.90;;;;;;4945970;28;20039;-61
2022/12/08 06:40:56;;;;;;;2.05;0.77;;;1.80;99.90;;;;;;4947028;29;20067;-62
2022/12/08 06:43:22;;;;;;;4.22;1.55;;;1.40;99.90;;;;;;4946207;28;20502;-61
2022/12/08 06:45:48;;;;;;;4.72;1.40;;;2.30;99.90;;;;;;4945387;28;20043;-61
2022/12/08 06:48:14;;;;;;;3.90;1.30;;;1.50;99.90;;;;;;4947012;28;20051;-61
2022/12/08 06:50:40;;;;;;;2.30;0.70;;;2.10;99.90;;;;;;4946864;28;20094;-61
2022/12/08 06:53:05;;;;;;;3.75;0.80;;;2.20;99.90;;;;;;4947287;29;20039;-60
2022/12/08 06:55:31;;;;;;;2.25;0.80;;;1.40;99.90;;;;;;4945538;28;20344;-61
2022/12/08 06:57:57;;;;;;;2.13;0.65;;;1.50;99.90;;;;;;4946264;28;20039;-61
2022/12/08 07:00:23;;;;;;;1.00;0.60;;;1.10;99.90;;;;;;4945902;28;20098;-61
2022/12/08 07:02:48;;;;;;;2.67;0.80;;;1.40;99.90;;;;;;4945726;29;20035;-61
2022/12/08 07:05:14;;;;;;;2.50;0.88;;;1.80;99.90;;;;;;4953491;28;20035;-62
2022/12/08 07:07:40;;;;;;;2.85;0.75;;;1.90;99.90;;;;;;4948636;28;20374;-62
2022/12/08 07:10:06;;;;;;;3.95;0.93;;;2.00;99.90;;;;;;4946124;29;20051;-62
2022/12/08 07:12:32;;;;;;;3.45;1.05;;;1.10;99.90;;;;;;4943464;29;20062;-62
2022/12/08 07:14:58;;;;;;;2.55;0.95;;;2.20;99.90;;;;;;4946310;29;20047;-62
2022/12/08 07:17:23;;;;;;;3.33;1.30;;;1.20;99.90;;;;;;4945823;28;20122;-62
2022/12/08 07:19:49;;;;;;;6.70;1.30;;;1.50;99.90;;;;;;4961170;28;20070;-62
2022/12/08 07:22:15;;;;;;;3.88;1.00;;;1.10;99.90;;;;;;4964129;28;20058;-60
2022/12/08 07:24:40;;;;;;;1.77;0.88;;;1.20;99.90;;;;;;4965203;28;20649;-61
2022/12/08 07:27:06;;;;;;;2.78;1.27;;;1.00;99.90;;;;;;4963139;28;20438;-61
2022/12/08 07:29:32;;;;;;;6.75;1.65;;;1.20;99.90;;;;;;4965111;28;20082;-61
2022/12/08 07:31:57;;;;;;;2.90;1.17;;;1.00;99.90;;;;;;4964712;28;20043;-62
2022/12/08 07:34:23;;;;;;;3.88;1.30;;;0.80;99.90;;;;;;4964198;28;20046;-61
2022/12/08 07:36:49;;;;;;;4.15;1.55;;;1.20;99.90;;;;;;4963585;28;20057;-61
2022/12/08 07:39:14;;;;;;;7.03;2.00;;;1.00;99.90;;;;;;4964016;28;20054;-61
2022/12/08 07:41:40;;;;;;;5.85;1.50;;;1.00;99.90;;;;;;4964188;28;20178;-61
2022/12/08 07:44:06;;;;;;;3.90;1.20;;;0.80;99.90;;;;;;4962961;28;20585;-61
2022/12/08 07:46:31;;;;;;;4.15;1.13;;;1.30;99.90;;;;;;4964718;28;20442;-61
2022/12/08 07:48:57;;;;;;;3.50;1.40;;;1.10;99.90;;;;;;4964849;28;20162;-62
2022/12/08 07:51:24;;;;;;;4.68;1.83;;;1.70;99.90;;;;;;4963813;28;20039;-62
2022/12/08 07:53:50;;;;;;;4.40;1.90;;;2.00;99.90;;;;;;4963953;28;20054;-62
2022/12/08 07:56:16;;;;;;;4.32;1.90;;;1.50;99.90;;;;;;4964220;28;20051;-62
2022/12/08 07:58:44;;;;;;;3.38;1.95;;;1.40;99.90;;;;;;4962691;28;20050;-61
2022/12/08 08:01:26;;;;;;;3.00;1.30;;;1.10;99.90;;;;;;4956828;28;20054;-62
2022/12/08 08:03:54;;;;;;;4.95;2.33;;;0.80;99.90;;;;;;4945025;28;20049;-62
2022/12/08 08:06:20;;;;;;;8.07;4.18;;;1.60;99.90;;;;;;4951800;28;20352;-62
2022/12/08 08:08:46;;;;;;;7.18;3.60;;;1.10;99.90;;;;;;4944839;29;20110;-62
2022/12/08 08:11:12;;;;;;;6.50;2.90;;;0.90;99.90;;;;;;4944151;28;20062;-61
2022/12/08 08:13:37;;;;;;;4.75;2.10;;;0.60;99.90;;;;;;4944481;28;20043;-61
2022/12/08 08:16:08;;;;;;;4.85;1.73;;;0.60;99.90;;;;;;4944478;29;20047;-61
2022/12/08 08:18:39;;;;;;;3.03;1.55;;;0.70;99.90;;;;;;4945396;28;20035;-61
2022/12/08 08:21:05;;;;;;;3.90;1.90;;;1.50;99.90;;;;;;4945063;28;20043;-61
2022/12/08 08:23:31;;;;;;;4.53;2.03;;;1.00;99.90;;;;;;4944144;28;20048;-61
2022/12/08 08:26:01;;;;;;;5.85;2.63;;;0.80;99.90;;;;;;4945098;29;20047;-62
2022/12/08 08:28:27;;;;;;;9.82;2.30;;;0.60;99.90;;;;;;4944459;28;20045;-61
2022/12/08 08:30:53;;;;;;;7.13;2.42;;;1.40;99.90;;;;;;4944077;28;20047;-61
2022/12/08 08:33:19;;;;;;;4.80;1.90;;;0.70;99.90;;;;;;4944650;29;21060;-61
2022/12/08 08:35:44;;;;;;;4.35;1.80;;;1.80;99.90;;;;;;4944501;29;20078;-61
2022/12/08 08:38:10;;;;;;;4.57;1.90;;;0.90;99.90;;;;;;4943794;29;20141;-61
2022/12/08 08:40:36;;;;;;;6.47;2.10;;;0.70;99.90;;;;;;4943843;29;20759;-62
2022/12/08 08:43:03;;;;;;;5.28;1.85;;;0.90;99.90;;;;;;4942591;29;20491;-62
2022/12/08 08:45:29;;;;;;;4.47;2.20;;;0.70;99.90;;;;;;4944530;28;20039;-61
2022/12/08 08:47:55;;;;;;;8.05;2.85;;;1.50;99.90;;;;;;4944617;29;20493;-62
2022/12/08 08:50:21;;;;;;;6.53;2.40;;;0.80;99.90;;;;;;4943258;29;20810;-62
2022/12/08 08:52:47;;;;;;;5.40;2.58;;;0.70;99.90;;;;;;4944578;29;20066;-62
2022/12/08 08:55:12;;;;;;;5.35;2.40;;;1.00;99.90;;;;;;4943660;29;20500;-62
2022/12/08 08:57:38;;;;;;;5.60;2.83;;;0.90;99.90;;;;;;4943557;29;20054;-63
2022/12/08 09:00:05;;;;;;;7.35;2.80;;;1.70;99.90;;;;;;4943813;29;20238;-62
2022/12/08 09:02:31;;;;;;;5.50;2.95;;;0.80;99.90;;;;;;4944652;28;20082;-62
2022/12/08 09:04:56;;;;;;;5.93;3.20;;;1.20;99.90;;;;;;4949608;28;20481;-62
2022/12/08 09:07:22;;;;;;;14.05;3.22;;;1.30;99.90;;;;;;4948462;28;20051;-62
2022/12/08 09:09:48;;;;;;;7.75;3.33;;;1.10;99.90;;;;;;4944052;29;20093;-61
2022/12/08 09:12:14;;;;;;;6.55;3.40;;;1.90;99.90;;;;;;4943320;29;20055;-61
2022/12/08 09:14:39;;;;;;;8.38;3.55;;;1.70;99.90;;;;;;4944211;28;20050;-61
2022/12/08 09:17:07;;;;;;;5.32;2.50;;;2.00;99.90;;;;;;4942490;29;20051;-62
2022/12/08 09:19:33;;;;;;;6.97;2.75;;;2.60;99.90;;;;;;4943718;28;20051;-61
2022/12/08 09:21:59;;;;;;;4.80;2.65;;;1.80;99.90;;;;;;4941911;29;20561;-61
2022/12/08 09:24:24;;;;;;;4.70;2.92;;;2.50;99.90;;;;;;4943426;28;20042;-62
2022/12/08 09:26:50;;;;;;;5.88;3.28;;;2.60;99.90;;;;;;4942183;29;20122;-61
2022/12/08 09:29:16;;;;;;;8.75;3.33;;;2.40;99.90;;;;;;4944144;29;20047;-62
2022/12/08 09:31:42;;;;;;;4.32;2.13;;;3.30;99.90;;;;;;4944424;28;20051;-61
2022/12/08 09:34:10;;;;;;;5.53;2.53;;;2.90;99.90;;;;;;4943564;29;20047;-62
2022/12/08 09:36:36;;;;;;;8.25;2.70;;;3.80;99.90;;;;;;4942180;29;20058;-62
2022/12/08 09:39:02;;;;;;;4.80;2.22;;;4.20;99.90;;;;;;4944321;29;20040;-62
2022/12/08 09:41:32;;;;;;;3.13;1.88;;;4.50;99.90;;;;;;4943176;28;20058;-63
2022/12/08 09:44:20;;;;;;;3.85;1.67;;;4.60;99.90;;;;;;4942760;28;20604;-61
2022/12/08 09:46:49;;;;;;;5.55;2.25;;;4.80;99.90;;;;;;4943980;28;20191;-62
2022/12/08 09:49:18;;;;;;;6.95;2.28;;;5.10;99.90;;;;;;4942003;29;20079;-63
2022/12/08 09:51:47;;;;;;;5.25;2.30;;;5.60;99.90;;;;;;4943076;28;20063;-61
2022/12/08 09:54:24;;;;;;;5.00;2.30;;;6.10;99.90;;;;;;4942087;29;20570;-61
2022/12/08 09:56:53;;;;;;;6.07;2.10;;;6.10;99.90;;;;;;4941305;28;20047;-61
2022/12/08 09:59:29;;;;;;;9.18;1.92;;;6.20;99.90;;;;;;4943675;28;20147;-62
2022/12/08 10:01:55;;;;;;;4.15;1.77;;;5.90;99.90;;;;;;4943636;28;20052;-61
2022/12/08 10:04:34;;;;;;;3.80;1.58;;;6.60;99.90;;;;;;4945778;28;20070;-61
2022/12/08 10:07:34;;;;;;;3.83;1.30;;;6.70;99.90;;;;;;4955309;28;20445;-62
2022/12/08 10:10:25;;;;;;;4.65;1.60;;;7.10;99.90;;;;;;4955835;28;20503;-62
2022/12/08 10:13:07;;;;;;;5.00;1.70;;;6.60;99.90;;;;;;4952715;28;20050;-61
2022/12/08 10:15:35;;;;;;;3.92;1.27;;;6.30;99.90;;;;;;4953432;28;20507;-61
2022/12/08 10:18:06;;;;;;;4.65;1.10;;;6.80;99.90;;;;;;4949865;28;20043;-61
2022/12/08 10:20:38;;;;;;;5.22;1.33;;;6.60;99.90;;;;;;4956934;28;20043;-62
2022/12/08 10:23:34;;;;;;;3.25;1.15;;;7.00;99.90;;;;;;4962153;28;20042;-62
2022/12/08 10:26:06;;;;;;;4.53;1.50;;;6.40;99.90;;;;;;4961499;28;20093;-61
2022/12/08 10:28:33;;;;;;;4.57;1.70;;;5.80;99.90;;;;;;4961852;28;20371;-62
2022/12/08 10:30:59;;;;;;;6.13;2.33;;;5.20;99.90;;;;;;4953763;28;20051;-61
2022/12/08 10:33:27;;;;;;;4.75;2.30;;;5.20;99.90;;;;;;4951786;28;20047;-62
2022/12/08 10:35:59;;;;;;;6.43;1.77;;;5.50;99.90;;;;;;4957462;28;20047;-62
2022/12/08 10:38:31;;;;;;;4.72;1.30;;;5.70;99.90;;;;;;4956499;28;20039;-62
2022/12/08 10:41:05;;;;;;;3.88;1.45;;;5.60;99.90;;;;;;4949576;28;20442;-62
2022/12/08 10:43:32;;;;;;;4.57;1.40;;;5.50;99.90;;;;;;4945939;28;20047;-62
2022/12/08 10:46:30;;;;;;;4.65;1.25;;;5.90;99.90;;;;;;4946799;28;20082;-61
2022/12/08 10:49:10;;;;;;;4.35;1.42;;;5.80;99.90;;;;;;4949746;28;20042;-60
2022/12/08 10:51:38;;;;;;;3.33;1.33;;;5.70;99.90;;;;;;4960400;28;20090;-62
2022/12/08 10:54:07;;;;;;;5.30;1.80;;;5.40;99.90;;;;;;4965725;28;20034;-60
2022/12/08 10:56:33;;;;;;;4.20;1.35;;;5.10;99.90;;;;;;4965329;28;20043;-62
2022/12/08 10:59:17;;;;;;;4.45;1.38;;;5.00;99.90;;;;;;4965847;28;20126;-62
2022/12/08 11:01:48;;;;;;;3.58;1.52;;;5.00;99.90;;;;;;4965462;28;20141;-62
2022/12/08 11:04:42;;;;;;;4.68;1.40;;;4.80;99.90;;;;;;4961854;28;20049;-62
2022/12/08 11:07:12;;;;;;;6.63;1.40;;;4.40;99.90;;;;;;4954977;28;20047;-62
2022/12/08 11:09:47;;;;;;;3.75;1.70;;;4.20;99.90;;;;;;4946020;28;20069;-61
2022/12/08 11:12:14;;;;;;;4.15;1.67;;;4.10;99.90;;;;;;4944244;29;20110;-62
2022/12/08 11:14:43;;;;;;;4.43;1.40;;;4.70;99.90;;;;;;4956133;28;20137;-62
2022/12/08 11:17:34;;;;;;;8.15;2.08;;;5.10;99.90;;;;;;4965865;28;20082;-61
2022/12/08 11:20:22;;;;;;;4.18;1.60;;;5.40;99.90;;;;;;4966057;28;20130;-62
2022/12/08 11:22:55;;;;;;;5.75;1.75;;;5.90;99.90;;;;;;4945663;28;20078;-62
2022/12/08 11:25:25;;;;;;;7.53;2.47;;;6.40;99.90;;;;;;4946243;28;20079;-62
2022/12/08 11:27:55;;;;;;;5.80;1.80;;;6.80;99.90;;;;;;4946736;28;20054;-62
2022/12/08 11:30:28;;;;;;;7.00;2.17;;;6.50;99.90;;;;;;4945214;28;20042;-61
2022/12/08 11:33:21;;;;;;;5.35;2.03;;;6.90;99.90;;;;;;4945961;28;20046;-62
2022/12/08 11:35:53;;;;;;;6.30;2.00;;;6.70;99.90;;;;;;4950222;28;20049;-61
2022/12/08 11:38:20;;;;;;;4.95;2.03;;;6.50;99.90;;;;;;4963652;28;20046;-62
2022/12/08 11:40:52;;;;;;;6.85;2.17;;;6.70;99.90;;;;;;4965312;28;20047;-61
2022/12/08 11:43:28;;;;;;;8.38;1.95;;;6.60;99.90;;;;;;4963893;28;20082;-61
2022/12/08 11:46:15;;;;;;;7.15;2.67;;;6.20;99.90;;;;;;4964422;28;20121;-63
2022/12/08 11:48:52;;;;;;;5.70;2.15;;;6.60;99.90;;;;;;4963153;28;20127;-61
2022/12/08 11:51:26;;;;;;;7.53;1.48;;;6.40;99.90;;;;;;4945110;28;20079;-62
2022/12/08 11:54:22;;;;;;;3.67;1.50;;;6.30;99.90;;;;;;4944811;28;20122;-61
2022/12/08 11:56:58;;;;;;;;;;;6.40;99.90;;;;;;4945170;28;20380;-60
2022/12/08 11:59:43;;;;;;;3.88;1.38;;;6.00;99.90;;;;;;4944885;28;19926;-62
2022/12/08 12:02:13;;;;;;;4.63;1.73;;;5.90;99.90;;;;;;4945149;28;20055;-62
2022/12/08 12:04:45;;;;;;;5.18;1.58;;;5.90;99.90;;;;;;4947677;28;20050;-61
2022/12/08 12:07:49;;;;;;;5.10;1.25;;;5.90;99.90;;;;;;4950905;28;20055;-62
2022/12/08 12:10:15;;;;;;;3.95;1.30;;;6.00;99.90;;;;;;4928897;28;20098;-62
2022/12/08 12:12:57;;;;;;;3.72;1.02;;;5.90;99.90;;;;;;4943936;29;20090;-61
2022/12/08 12:15:58;;;;;;;4.20;1.10;;;5.90;99.90;;;;;;4944636;28;20446;-62
2022/12/08 12:18:45;;;;;;;2.75;0.95;;;5.90;99.90;;;;;;4945037;28;20151;-62
2022/12/08 12:21:33;;;;;;;3.03;1.20;;;5.80;99.90;;;;;;4944900;28;20406;-60
2022/12/08 12:24:13;;;;;;;3.72;1.10;;;5.80;99.90;;;;;;4944382;28;20155;-63
2022/12/08 12:27:00;;;;;;;6.03;1.67;;;5.40;99.90;;;;;;4943290;28;20142;-61
2022/12/08 12:29:33;;;;;;;3.78;1.20;;;5.20;99.90;;;;;;4942203;29;21010;-64
2022/12/08 12:32:06;;;;;;;4.25;1.50;;;5.20;99.90;;;;;;4945290;28;20202;-61
2022/12/08 12:34:43;;;;;;;4.03;1.23;;;4.80;99.90;;;;;;4944118;28;20117;-62
2022/12/08 12:37:17;;;;;;;4.80;1.50;;;4.80;99.90;;;;;;4943994;28;20058;-61
2022/12/08 12:39:46;;;;;;;7.47;1.95;;;4.50;99.90;;;;;;4944403;28;20077;-63
2022/12/08 12:42:42;;;;;;;6.25;1.20;;;4.60;99.90;;;;;;4942529;29;20066;-62
2022/12/08 12:45:17;;;;;;;4.05;1.10;;;4.70;99.90;;;;;;4943407;28;20055;-61
2022/12/08 12:47:45;;;;;;;3.63;1.33;;;4.70;99.90;;;;;;4958918;28;20069;-63
2022/12/08 12:50:13;;;;;;;4.85;1.35;;;4.50;99.90;;;;;;4944620;28;20066;-61
2022/12/08 12:52:39;;;;;;;3.72;0.82;;;4.70;99.90;;;;;;4943467;28;20491;-64
2022/12/08 12:55:08;;;;;;;4.63;0.80;;;4.80;99.90;;;;;;4943083;28;20170;-64
2022/12/08 12:57:48;;;;;;;6.35;0.93;;;4.90;99.90;;;;;;4958396;28;20627;-64
2022/12/08 13:00:19;;;;;;;4.60;1.02;;;4.80;99.90;;;;;;4941220;28;20063;-64
2022/12/08 13:02:47;;;;;;;3.97;0.90;;;4.90;99.90;;;;;;4941674;29;20098;-64
2022/12/08 13:05:27;;;;;;;4.60;0.90;;;5.00;99.90;;;;;;4934225;28;20090;-64
2022/12/08 13:08:06;;;;;;;4.80;1.45;;;5.00;99.90;;;;;;4943528;28;20043;-64
2022/12/08 13:10:34;;;;;;;7.47;2.22;;;4.90;99.90;;;;;;4943736;28;20077;-64
2022/12/08 13:13:08;;;;;;;2.85;0.90;;;4.90;99.90;;;;;;4942568;28;20039;-64
2022/12/08 13:15:55;;;;;;;5.35;1.00;;;4.70;99.90;;;;;;4941790;29;20043;-64
2022/12/08 13:18:27;;;;;;;5.75;1.60;;;4.80;99.90;;;;;;4943133;28;20043;-64